Time;durP1;ratioP1;P1;durP2;ratioP2;P2;SDS_P1;SDS_P2;PMS_P1;PMS_P2;Temp;Humidity;BMP_temperature;BMP_pressure;BME280_temperature;BME280_humidity;BME280_pressure;Samples;Min_cycle;Max_cycle;Signal;HPM_P1;HPM_P2
2022/11/16 00:01:24;;;;;;;15.38;11.13;;;;;;;29.98;20.42;97367.50;6213637;23;19990;-79
2022/11/16 00:03:52;;;;;;;16.92;11.77;;;;;;;30.00;20.30;97364.19;6216167;23;20004;-79
2022/11/16 00:06:19;;;;;;;17.05;11.13;;;;;;;30.02;20.37;97367.28;6215474;23;19918;-79
2022/11/16 00:09:20;;;;;;;20.50;12.20;;;;;;;29.94;20.19;97352.75;6215425;23;19907;-79
2022/11/16 00:11:33;;;;;;;19.05;12.23;;;;;;;29.71;20.41;97358.56;6216136;23;20230;-79
2022/11/16 00:14:00;;;;;;;19.05;11.85;;;;;;;29.23;20.94;97355.91;6214792;23;19908;-79
2022/11/16 00:16:27;;;;;;;18.33;11.10;;;;;;;29.14;21.22;97356.00;6185710;23;19908;-79
2022/11/16 00:18:58;;;;;;;16.40;11.15;;;;;;;29.34;21.06;97344.81;6208102;23;19911;-79
2022/11/16 00:21:25;;;;;;;19.13;12.32;;;;;;;29.54;20.71;97346.16;6187332;23;20064;-79
2022/11/16 00:23:52;;;;;;;18.45;11.70;;;;;;;29.59;20.58;97349.09;6216126;23;20352;-80
2022/11/16 00:26:19;;;;;;;14.07;9.70;;;;;;;29.65;20.47;97343.50;6215286;23;20270;-80
2022/11/16 00:28:45;;;;;;;18.38;11.95;;;;;;;29.35;20.74;97337.88;6216095;23;19907;-79
2022/11/16 00:31:11;;;;;;;17.53;11.57;;;;;;;29.27;20.98;97333.88;6212911;23;20350;-79
2022/11/16 00:33:38;;;;;;;15.23;10.10;;;;;;;29.34;20.89;97333.50;6215692;23;19908;-80
2022/11/16 00:36:08;;;;;;;17.25;11.40;;;;;;;29.19;21.20;97337.59;6215398;23;19934;-79
2022/11/16 00:38:34;;;;;;;16.38;10.82;;;;;;;28.99;21.38;97335.38;6215168;23;19918;-79
2022/11/16 00:41:00;;;;;;;16.42;11.80;;;;;;;29.22;21.09;97339.44;6214792;23;20338;-79
2022/11/16 00:43:27;;;;;;;19.85;11.25;;;;;;;29.40;20.61;97340.03;6215681;23;20357;-79
2022/11/16 00:45:53;;;;;;;19.75;12.10;;;;;;;29.38;20.92;97339.72;6214553;23;19908;-79
2022/11/16 00:48:19;;;;;;;17.52;10.80;;;;;;;29.48;20.83;97339.66;6214128;23;20380;-79
2022/11/16 00:50:46;;;;;;;15.38;10.07;;;;;;;29.55;20.84;97334.34;6215107;23;19919;-79
2022/11/16 00:53:14;;;;;;;18.95;10.45;;;;;;;29.68;20.49;97331.22;6213374;23;19911;-79
2022/11/16 00:55:41;;;;;;;18.05;11.85;;;;;;;29.79;20.56;97334.25;6212750;23;19912;-79
2022/11/16 00:58:08;;;;;;;19.45;11.02;;;;;;;29.85;20.43;97335.13;6213731;23;19912;-79
2022/11/16 01:00:34;;;;;;;18.60;11.40;;;;;;;29.68;20.38;97334.06;6213818;23;19982;-79
2022/11/16 01:03:00;;;;;;;16.95;10.63;;;;;;;29.67;20.55;97335.31;6211215;23;20337;-79
2022/11/16 01:05:26;;;;;;;18.42;11.70;;;;;;;29.69;20.22;97330.72;6213561;23;19927;-79
2022/11/16 01:07:53;;;;;;;20.45;12.25;;;;;;;29.63;20.47;97326.25;6213907;23;20280;-79
2022/11/16 01:10:22;;;;;;;19.10;12.32;;;;;;;29.52;20.61;97326.06;6187663;23;20282;-79
2022/11/16 01:12:50;;;;;;;21.17;13.10;;;;;;;28.89;21.16;97322.63;6213005;23;19931;-79
2022/11/16 01:15:18;;;;;;;18.48;11.82;;;;;;;28.30;22.03;97318.03;6214603;23;19908;-79
2022/11/16 01:17:44;;;;;;;18.60;12.32;;;;;;;28.11;22.28;97322.25;6213373;23;20026;-79
2022/11/16 01:20:22;;;;;;;16.05;9.85;;;;;;;28.12;22.42;97313.31;6214418;23;19904;-79
2022/11/16 01:22:49;;;;;;;17.50;10.97;;;;;;;28.40;21.87;97313.91;6212729;23;20318;-79
2022/11/16 01:25:15;;;;;;;17.98;12.57;;;;;;;28.33;21.96;97317.88;6215387;23;19927;-79
2022/11/16 01:27:42;;;;;;;18.88;11.13;;;;;;;28.14;22.22;97310.78;6214799;23;19987;-79
2022/11/16 01:30:11;;;;;;;22.08;13.27;;;;;;;28.14;22.30;97318.47;6214757;23;19918;-79
2022/11/16 01:32:37;;;;;;;23.17;13.60;;;;;;;28.46;21.99;97314.78;6214790;23;20080;-79
2022/11/16 01:35:04;;;;;;;17.77;11.55;;;;;;;28.67;21.59;97313.69;6214728;23;19915;-79
2022/11/16 01:37:31;;;;;;;21.90;13.80;;;;;;;28.25;22.26;97302.53;6215139;23;19908;-79
2022/11/16 01:39:57;;;;;;;19.70;13.55;;;;;;;28.12;22.42;97295.59;6214453;23;19915;-79
2022/11/16 01:42:26;;;;;;;19.13;13.27;;;;;;;28.49;21.93;97296.88;6215312;23;20325;-79
2022/11/16 01:45:05;;;;;;;18.45;11.75;;;;;;;28.96;21.49;97291.16;6212100;23;20338;-79
2022/11/16 01:47:31;;;;;;;21.50;12.65;;;;;;;29.32;21.00;97290.00;6186122;23;20015;-79
2022/11/16 01:50:10;;;;;;;17.77;12.77;;;;;;;29.29;21.20;97283.25;6213005;23;20377;-79
2022/11/16 01:52:40;;;;;;;16.90;10.55;;;;;;;29.28;21.21;97278.91;6214278;23;20467;-79
2022/11/16 01:55:07;;;;;;;15.70;10.68;;;;;;;29.53;20.70;97283.16;6214071;23;20348;-79
2022/11/16 01:57:38;;;;;;;17.75;10.38;;;;;;;29.60;20.67;97285.56;6187568;23;20385;-79
2022/11/16 02:00:07;;;;;;;17.77;11.70;;;;;;;29.52;20.83;97280.81;6213391;23;19919;-79
2022/11/16 02:02:33;;;;;;;18.48;11.25;;;;;;;29.31;21.04;97274.31;6213607;23;20094;-79
2022/11/16 02:05:01;;;;;;;15.68;10.95;;;;;;;29.14;21.16;97276.81;6214310;23;20317;-79
2022/11/16 02:10:45;;;;;;;15.77;11.50;;;;;;;29.27;20.87;97259.56;6213149;23;20020;-79
2022/11/16 02:13:32;;;;;;;19.90;12.30;;;;;;;28.54;21.77;97251.78;6213408;23;20584;-79
2022/11/16 02:16:47;;;;;;;19.60;12.90;;;;;;;27.76;22.53;97251.41;6213342;23;20102;-79
2022/11/16 02:19:48;;;;;;;19.17;12.57;;;;;;;27.30;23.40;97248.00;6214005;23;20008;-79
2022/11/16 02:22:23;;;;;;;20.45;12.88;;;;;;;27.50;23.35;97241.81;6212084;23;20016;-79
2022/11/16 02:25:26;;;;;;;19.33;11.63;;;;;;;27.95;22.80;97235.94;6215093;23;19914;-79
2022/11/16 02:28:12;;;;;;;18.40;11.55;;;;;;;28.63;21.89;97228.38;6213576;23;20008;-79
2022/11/16 02:30:45;;;;;;;21.07;14.07;;;;;;;28.59;21.77;97225.72;6213525;23;24055;-79
2022/11/16 02:33:16;;;;;;;18.60;12.55;;;;;;;28.38;22.23;97234.53;6215106;23;19911;-79
2022/11/16 02:35:53;;;;;;;17.58;11.93;;;;;;;28.44;22.14;97229.78;6215524;23;20230;-79
2022/11/16 02:38:26;;;;;;;15.48;10.57;;;;;;;28.64;21.91;97227.88;6213963;23;19931;-80
2022/11/16 02:41:07;;;;;;;17.05;11.60;;;;;;;28.95;21.65;97226.63;6214080;23;20086;-79
2022/11/16 02:43:41;;;;;;;17.73;11.52;;;;;;;29.16;21.25;97222.59;6188434;23;19915;-79
2022/11/16 02:46:12;;;;;;;17.13;11.43;;;;;;;29.40;21.25;97223.28;6212760;23;19908;-79
2022/11/16 02:48:44;;;;;;;16.63;11.37;;;;;;;29.59;20.99;97224.63;6213046;23;20494;-79
2022/11/16 02:51:11;;;;;;;12.65;9.30;;;;;;;29.71;20.86;97215.00;6214663;23;20249;-79
2022/11/16 02:53:50;;;;;;;15.83;10.67;;;;;;;29.79;20.83;97215.38;6213043;23;20330;-79
2022/11/16 02:56:16;;;;;;;19.55;12.70;;;;;;;29.63;20.60;97211.03;6212192;23;20269;-79
2022/11/16 02:58:43;;;;;;;18.13;12.25;;;;;;;29.31;20.99;97212.84;6214486;23;19912;-79
2022/11/16 03:01:20;;;;;;;19.05;12.75;;;;;;;28.97;21.33;97207.91;6213506;23;20009;-79
2022/11/16 03:04:03;;;;;;;16.70;11.32;;;;;;;29.00;21.84;97206.94;6212375;23;20318;-79
2022/11/16 03:06:33;;;;;;;16.92;11.43;;;;;;;29.25;21.28;97205.56;6213602;23;20016;-79
2022/11/16 03:09:07;;;;;;;17.33;10.27;;;;;;;29.32;21.35;97208.78;6213535;23;20288;-79
2022/11/16 03:14:42;;;;;;;13.32;9.45;;;;;;;29.68;20.76;97204.69;6214434;23;20292;-79
2022/11/16 03:17:19;;;;;;;19.30;11.40;;;;;;;29.67;20.84;97194.63;6212578;23;20002;-79
2022/11/16 03:20:05;;;;;;;15.40;10.05;;;;;;;29.74;20.99;97197.03;6186566;23;20419;-79
2022/11/16 03:22:44;;;;;;;19.60;12.35;;;;;;;29.03;21.50;97193.88;6212048;23;19908;-80
2022/11/16 03:25:14;;;;;;;17.60;11.57;;;;;;;27.59;23.26;97193.81;6212217;23;20435;-79
2022/11/16 03:28:02;;;;;;;18.63;11.40;;;;;;;27.00;24.18;97201.16;6213562;23;20280;-79
2022/11/16 03:30:35;;;;;;;17.00;11.82;;;;;;;27.48;23.42;97194.38;6213134;23;19914;-79
2022/11/16 03:33:34;;;;;;;17.05;10.73;;;;;;;28.30;22.68;97202.28;6215366;23;19914;-79
2022/11/16 03:36:34;;;;;;;15.75;10.55;;;;;;;28.73;22.03;97190.28;6216095;23;20446;-79
2022/11/16 03:39:27;;;;;;;16.08;11.07;;;;;;;29.25;21.33;97197.06;6214236;23;20331;-79
2022/11/16 03:41:56;;;;;;;16.85;11.20;;;;;;;29.57;20.97;97181.88;6196258;23;19950;-79
2022/11/16 03:44:22;;;;;;;16.20;10.98;;;;;;;29.74;20.82;97176.44;6215570;23;20080;-79
2022/11/16 03:46:48;;;;;;;16.13;11.00;;;;;;;29.82;20.67;97174.78;6214263;23;19908;-79
2022/11/16 03:49:15;;;;;;;14.90;9.65;;;;;;;29.87;20.68;97174.09;6214711;23;19915;-79
2022/11/16 03:51:41;;;;;;;15.85;11.25;;;;;;;29.81;20.76;97173.22;6214654;23;20045;-79
2022/11/16 03:54:07;;;;;;;16.25;11.45;;;;;;;29.66;20.76;97175.31;6215168;23;19938;-79
2022/11/16 03:56:33;;;;;;;16.52;11.15;;;;;;;29.58;21.12;97174.16;6213431;23;19912;-79
2022/11/16 03:58:59;;;;;;;18.02;11.75;;;;;;;29.61;20.82;97176.03;6215227;23;19915;-79
2022/11/16 04:01:25;;;;;;;14.93;10.48;;;;;;;29.66;20.80;97173.28;6215388;23;20009;-79
2022/11/16 04:03:51;;;;;;;15.95;10.65;;;;;;;29.70;20.71;97178.72;6214272;23;19923;-79
2022/11/16 04:25:51;;;;;;;17.90;11.77;;;;;;;28.65;21.74;97153.19;6213725;23;20405;-79
2022/11/16 04:28:21;;;;;;;17.33;10.93;;;;;;;28.58;22.16;97147.09;6215181;23;19914;-79
2022/11/16 04:39:08;;;;;;;15.70;10.90;;;;;;;28.81;21.74;97146.25;6216302;23;19914;-79
2022/11/16 04:44:20;;;;;;;20.63;13.10;;;;;;;28.88;21.73;97148.66;6214614;23;20572;-79
2022/11/16 04:49:31;;;;;;;16.55;10.60;;;;;;;29.37;21.32;97136.59;6214369;23;20513;-79
2022/11/16 04:51:57;;;;;;;17.50;10.93;;;;;;;29.57;21.26;97144.34;6214373;23;19999;-79
2022/11/16 04:54:23;;;;;;;17.25;11.90;;;;;;;29.52;21.18;97142.19;6215212;23;19908;-79
2022/11/16 04:56:49;;;;;;;16.25;12.30;;;;;;;29.17;21.54;97142.19;6212315;23;19912;-79
2022/11/16 04:59:15;;;;;;;18.38;12.30;;;;;;;28.80;21.82;97143.91;6214226;23;19911;-79
2022/11/16 05:04:26;;;;;;;15.80;11.05;;;;;;;29.12;21.54;97132.34;6212424;23;19938;-79
2022/11/16 05:06:52;;;;;;;15.37;11.30;;;;;;;28.91;21.75;97130.75;6213960;23;20442;-79
2022/11/16 05:09:18;;;;;;;17.25;11.27;;;;;;;29.12;21.54;97137.22;6214135;23;19908;-79
2022/11/16 05:11:44;;;;;;;17.27;11.10;;;;;;;29.01;21.78;97126.50;6212954;23;19938;-79
2022/11/16 05:14:11;;;;;;;15.43;10.73;;;;;;;28.93;21.42;97128.19;6213944;23;20017;-79
2022/11/16 05:16:37;;;;;;;19.02;12.43;;;;;;;28.44;22.26;97125.28;6212313;23;19954;-80
2022/11/16 05:21:48;;;;;;;21.77;13.07;;;;;;;27.92;22.93;97115.56;6213054;23;19915;-79
2022/11/16 05:27:08;;;;;;;16.30;11.25;;;;;;;28.72;21.99;97106.78;6213029;23;20034;-79
2022/11/16 05:29:35;;;;;;;17.08;11.68;;;;;;;29.11;21.51;97110.22;6212924;23;20426;-79
2022/11/16 05:32:02;;;;;;;16.80;12.03;;;;;;;28.48;22.34;97118.16;6212249;23;20326;-79
2022/11/16 05:34:28;;;;;;;16.10;11.63;;;;;;;28.64;22.42;97117.72;6183076;23;19991;-79
2022/11/16 05:36:55;;;;;;;18.98;11.93;;;;;;;28.84;22.08;97116.22;6210700;23;19951;-79
2022/11/16 05:39:22;;;;;;;19.02;11.77;;;;;;;29.05;22.10;97121.47;6213533;23;19935;-79
2022/11/16 05:41:48;;;;;;;16.90;11.77;;;;;;;29.22;21.58;97121.75;6211615;23;20341;-78
2022/11/16 05:44:15;;;;;;;19.27;12.50;;;;;;;29.38;21.55;97115.53;6185067;23;20295;-82
2022/11/16 05:46:41;;;;;;;16.25;10.95;;;;;;;29.53;21.43;97116.25;6210414;23;19935;-79
2022/11/16 05:49:08;;;;;;;16.40;11.13;;;;;;;29.68;21.15;97119.00;6214184;23;20012;-78
2022/11/16 05:51:35;;;;;;;19.85;12.23;;;;;;;29.80;20.91;97112.25;6215199;23;19908;-79
2022/11/16 05:54:02;;;;;;;16.30;11.38;;;;;;;29.84;20.85;97113.59;6214808;23;20005;-78
2022/11/16 05:56:29;;;;;;;21.48;13.52;;;;;;;29.91;20.85;97112.38;6213619;23;19933;-78
2022/11/16 05:58:55;;;;;;;16.80;11.70;;;;;;;29.92;20.79;97108.28;6214324;23;19971;-79
2022/11/16 06:01:21;;;;;;;20.63;13.77;;;;;;;29.97;20.94;97110.38;6215083;23;19908;-79
2022/11/16 06:03:47;;;;;;;18.52;12.50;;;;;;;30.01;20.64;97108.13;6214329;23;20005;-79
2022/11/16 06:06:14;;;;;;;19.42;11.32;;;;;;;30.02;20.94;97113.28;6215067;23;19912;-78
2022/11/16 06:08:40;;;;;;;18.40;11.83;;;;;;;29.86;20.88;97107.41;6215253;23;19972;-79
2022/11/16 06:11:07;;;;;;;18.13;13.27;;;;;;;29.68;21.25;97104.88;6188690;23;19915;-78
2022/11/16 06:13:34;;;;;;;17.92;13.40;;;;;;;29.70;21.16;97111.59;6214987;23;19954;-78
2022/11/16 06:16:01;;;;;;;17.15;11.30;;;;;;;29.80;21.19;97109.41;6215639;23;19943;-78
2022/11/16 06:18:28;;;;;;;18.53;12.13;;;;;;;29.91;21.15;97106.72;6214643;23;19908;-78
2022/11/16 06:20:54;;;;;;;16.42;11.88;;;;;;;29.92;21.21;97094.13;6215685;23;19946;-79
2022/11/16 06:23:20;;;;;;;15.23;11.57;;;;;;;29.93;21.13;97104.16;6215107;23;19915;-78
2022/11/16 06:25:51;;;;;;;17.67;12.68;;;;;;;29.81;21.06;97106.09;6215672;23;20245;-78
2022/11/16 06:28:17;;;;;;;17.77;12.13;;;;;;;29.53;21.43;97115.47;6213974;23;19914;-79
2022/11/16 06:30:43;;;;;;;16.63;11.32;;;;;;;29.47;21.50;97104.09;6214340;23;19912;-79
2022/11/16 06:33:09;;;;;;;19.67;13.88;;;;;;;28.98;22.11;97106.94;6215005;23;19915;-79
2022/11/16 06:35:35;;;;;;;19.77;13.15;;;;;;;28.58;22.53;97107.56;6214880;23;19947;-78
2022/11/16 06:38:01;;;;;;;18.38;12.50;;;;;;;28.70;22.56;97104.47;6214499;23;19908;-78
2022/11/16 06:40:27;;;;;;;19.15;12.48;;;;;;;29.16;22.08;97098.22;6215430;23;19903;-79
2022/11/16 06:42:55;;;;;;;16.23;11.25;;;;;;;29.50;21.75;97099.50;6214664;23;19908;-79
2022/11/16 06:45:22;;;;;;;16.85;12.40;;;;;;;29.58;21.69;97092.91;6214853;23;20023;-79
2022/11/16 06:47:48;;;;;;;19.35;13.00;;;;;;;29.70;21.39;97091.00;6212400;23;19904;-79
2022/11/16 06:50:18;;;;;;;16.23;10.87;;;;;;;29.76;21.62;97078.50;6213825;23;19920;-79
2022/11/16 06:52:45;;;;;;;16.55;12.07;;;;;;;29.91;21.63;97076.38;6214697;23;19903;-79
2022/11/16 06:55:12;;;;;;;17.17;11.85;;;;;;;30.05;21.33;97077.53;6213656;23;20021;-79
2022/11/16 06:57:38;;;;;;;19.17;13.00;;;;;;;30.08;21.37;97077.31;6214212;23;20008;-79
2022/11/16 07:00:05;;;;;;;21.20;14.30;;;;;;;30.08;21.25;97065.22;6215062;23;19939;-79
2022/11/16 07:02:32;;;;;;;17.35;12.70;;;;;;;30.10;21.34;97071.16;6213802;23;20013;-79
2022/11/16 07:04:58;;;;;;;14.65;10.60;;;;;;;30.13;21.46;97063.72;6214745;23;20012;-79
2022/11/16 07:07:24;;;;;;;15.70;11.00;;;;;;;30.18;21.35;97071.50;6217146;23;20016;-79
2022/11/16 07:09:50;;;;;;;17.87;13.17;;;;;;;30.21;21.28;97068.44;6215972;23;20032;-79
2022/11/16 07:12:16;;;;;;;18.10;12.55;;;;;;;29.63;21.67;97063.91;6189326;23;20067;-79
2022/11/16 07:14:44;;;;;;;18.73;12.50;;;;;;;29.04;22.57;97062.56;6216933;23;19922;-79
2022/11/16 07:17:10;;;;;;;14.07;11.38;;;;;;;28.82;22.82;97059.44;6216747;23;19908;-79
2022/11/16 07:19:36;;;;;;;14.15;10.73;;;;;;;28.75;23.03;97060.63;6216432;23;20016;-79
2022/11/16 07:22:03;;;;;;;13.40;9.32;;;;;;;28.94;22.79;97047.78;6216448;23;19919;-79
2022/11/16 07:24:29;;;;;;;14.43;9.85;;;;;;;29.29;22.44;97050.63;6216774;23;20027;-79
2022/11/16 07:26:55;;;;;;;13.98;10.27;;;;;;;29.66;22.00;97050.81;6216816;23;20438;-79
2022/11/16 07:29:21;;;;;;;11.82;8.60;;;;;;;29.88;21.86;97040.56;6217088;23;19918;-79
2022/11/16 07:31:47;;;;;;;12.07;9.27;;;;;;;30.02;21.74;97045.34;6215926;23;20431;-79
2022/11/16 07:34:13;;;;;;;10.35;8.10;;;;;;;30.12;21.59;97039.50;6215959;23;20253;-79
2022/11/16 07:36:39;;;;;;;8.35;7.45;;;;;;;30.12;21.64;97034.63;6190045;23;19912;-79
2022/11/16 07:39:08;;;;;;;9.05;7.30;;;;;;;30.20;21.68;97040.63;6216059;23;20072;-79
2022/11/16 07:41:34;;;;;;;10.75;8.27;;;;;;;30.25;21.60;97037.03;6216839;23;20338;-79
2022/11/16 07:44:00;;;;;;;10.02;8.27;;;;;;;30.19;21.51;97042.66;6216064;23;19915;-79
2022/11/16 07:46:27;;;;;;;11.30;7.93;;;;;;;29.99;21.62;97037.06;6216153;23;20429;-79
2022/11/16 07:48:53;;;;;;;10.13;7.88;;;;;;;30.08;21.80;97042.56;6216577;23;19908;-79
2022/11/16 07:51:19;;;;;;;9.27;7.63;;;;;;;30.16;21.44;97037.22;6216524;23;20015;-79
2022/11/16 07:53:46;;;;;;;10.32;8.02;;;;;;;30.11;21.65;97040.78;6214469;23;20004;-79
2022/11/16 07:56:12;;;;;;;11.23;8.60;;;;;;;29.85;21.50;97040.78;6214989;23;20342;-79
2022/11/16 07:58:39;;;;;;;11.00;8.77;;;;;;;29.54;21.95;97049.91;6215967;23;20326;-79
2022/11/16 08:01:13;;;;;;;10.85;8.07;;;;;;;29.29;22.29;97050.63;6189203;23;19908;-79
2022/11/16 08:03:40;;;;;;;10.10;7.53;;;;;;;29.36;22.43;97044.53;6190013;23;19994;-80
2022/11/16 08:06:12;;;;;;;8.95;7.68;;;;;;;29.28;22.40;97046.25;6216035;23;20048;-79
2022/11/16 08:08:39;;;;;;;11.00;8.25;;;;;;;29.11;22.55;97042.38;6216524;23;19919;-79
2022/11/16 08:11:08;;;;;;;11.45;9.02;;;;;;;28.81;22.90;97050.16;6216315;23;19908;-79
2022/11/16 08:13:37;;;;;;;13.98;9.88;;;;;;;28.73;23.19;97052.63;6216244;23;19912;-79
2022/11/16 08:16:08;;;;;;;12.20;8.65;;;;;;;28.55;23.18;97049.22;6215491;23;20004;-79
2022/11/16 08:18:36;;;;;;;13.68;10.30;;;;;;;28.59;23.08;97050.59;6215462;23;19927;-79
2022/11/16 08:21:04;;;;;;;11.10;8.35;;;;;;;28.89;23.12;97044.91;6215367;23;19912;-79
2022/11/16 08:23:31;;;;;;;10.65;8.65;;;;;;;29.19;22.52;97052.81;6216541;23;19908;-79
2022/11/16 08:25:59;;;;;;;10.82;8.27;;;;;;;29.38;22.34;97053.31;6215933;23;20012;-79
2022/11/16 08:28:27;;;;;;;11.77;8.27;;;;;;;29.49;22.38;97056.28;6216330;23;20012;-79
2022/11/16 08:30:53;;;;;;;11.18;8.70;;;;;;;29.04;22.71;97048.44;6215377;23;20013;-79
2022/11/16 08:33:20;;;;;;;8.85;6.82;;;;;;;28.29;23.79;97059.56;6215671;23;20008;-79
2022/11/16 08:35:47;;;;;;;11.77;8.52;;;;;;;28.01;24.48;97059.06;6216583;23;20044;-79
2022/11/16 08:38:13;;;;;;;11.38;8.35;;;;;;;26.66;26.02;97055.88;6216042;23;20071;-79
2022/11/16 08:40:40;;;;;;;23.80;16.00;;;;;;;23.17;31.62;97064.66;6215978;23;20493;-79
2022/11/16 08:43:06;;;;;;;34.45;23.20;;;;;;;20.88;35.84;97072.22;6216042;23;19907;-79
2022/11/16 08:45:35;;;;;;;33.22;21.02;;;;;;;21.21;35.02;97070.19;6215694;23;19911;-79
2022/11/16 08:48:01;;;;;;;28.92;19.13;;;;;;;21.49;34.08;97066.66;6215977;23;19920;-79
2022/11/16 08:50:27;;;;;;;34.08;23.92;;;;;;;20.12;36.78;97068.00;6215898;23;20079;-79
2022/11/16 08:52:55;;;;;;;31.58;21.73;;;;;;;20.48;36.19;97073.59;6216552;23;19908;-79
2022/11/16 08:55:21;;;;;;;26.17;17.98;;;;;;;20.38;36.33;97077.41;6215252;23;19908;-79
2022/11/16 08:57:47;;;;;;;35.90;23.15;;;;;;;19.75;37.36;97079.53;6215527;23;20013;-79
2022/11/16 09:00:14;;;;;;;27.10;17.40;;;;;;;21.03;34.62;97070.63;6215533;23;19918;-79
2022/11/16 09:02:40;;;;;;;27.63;18.63;;;;;;;20.64;35.35;97081.97;6216072;23;20051;-79
2022/11/16 09:05:07;;;;;;;21.70;16.02;;;;;;;20.77;35.19;97079.28;6215547;23;19919;-79
2022/11/16 09:07:33;;;;;;;25.25;17.38;;;;;;;20.18;36.27;97071.06;6216368;23;20045;-79
2022/11/16 09:09:59;;;;;;;22.13;14.52;;;;;;;21.56;33.39;97071.25;6215593;23;19958;-79
2022/11/16 09:12:25;;;;;;;21.13;14.65;;;;;;;22.24;32.08;97059.69;6215205;23;19908;-79
2022/11/16 09:14:51;;;;;;;18.55;14.45;;;;;;;23.24;30.50;97058.81;6215693;23;19904;-79
2022/11/16 09:17:17;;;;;;;22.20;14.10;;;;;;;22.86;31.03;97050.50;6215639;23;20370;-79
2022/11/16 09:19:43;;;;;;;16.90;11.95;;;;;;;22.13;32.25;97054.41;6215567;23;19908;-80
2022/11/16 09:22:09;;;;;;;21.63;15.80;;;;;;;20.47;35.38;97052.50;6189335;23;20337;-80
2022/11/16 09:24:35;;;;;;;19.25;13.68;;;;;;;20.55;35.46;97051.13;6188991;23;19916;-79
2022/11/16 09:27:01;;;;;;;16.17;12.65;;;;;;;20.43;35.65;97044.22;6215805;23;19908;-79
2022/11/16 09:29:27;;;;;;;14.93;11.82;;;;;;;20.85;35.05;97038.81;6215391;23;20241;-79
2022/11/16 09:31:54;;;;;;;14.32;11.32;;;;;;;21.70;33.14;97038.13;6215820;23;19987;-80
2022/11/16 09:34:20;;;;;;;15.38;11.63;;;;;;;21.49;33.27;97035.13;6215423;23;19916;-80
2022/11/16 09:36:46;;;;;;;15.13;10.45;;;;;;;21.90;32.74;97035.16;6215224;23;19966;-80
2022/11/16 09:39:12;;;;;;;13.20;9.82;;;;;;;22.82;31.13;97033.06;6215851;23;19919;-80
2022/11/16 09:42:05;;;;;;;13.48;9.70;;;;;;;21.56;33.23;97023.75;6215623;23;19908;-80
2022/11/16 09:44:47;;;;;;;10.70;7.95;;;;;;;22.14;32.33;97025.25;6215474;23;20008;-80
2022/11/16 09:47:20;;;;;;;11.90;8.55;;;;;;;21.82;32.74;97028.94;6215356;23;20012;-80
2022/11/16 09:49:52;;;;;;;9.77;7.30;;;;;;;22.60;31.39;97016.19;6215633;23;19915;-80
2022/11/16 09:52:39;;;;;;;8.60;6.40;;;;;;;22.56;31.09;97021.09;6214967;23;19908;-80
2022/11/16 09:55:25;;;;;;;7.32;5.82;;;;;;;23.50;29.87;97017.53;6214695;23;20008;-80
2022/11/16 09:57:55;;;;;;;6.25;5.25;;;;;;;23.54;29.69;97015.38;6215011;23;20453;-80
2022/11/16 10:00:22;;;;;;;5.85;5.05;;;;;;;23.91;28.67;97003.94;6215265;23;19938;-80
2022/11/16 10:03:11;;;;;;;7.07;4.88;;;;;;;23.31;29.34;97006.13;6216109;23;19950;-80
2022/11/16 10:05:54;;;;;;;6.45;4.25;;;;;;;23.49;29.52;97011.13;6215249;23;20024;-80
2022/11/16 10:08:45;;;;;;;4.85;4.00;;;;;;;23.46;29.51;96995.22;6215762;23;20013;-80
2022/11/16 10:11:25;;;;;;;6.72;4.82;;;;;;;23.96;29.36;96992.13;6215751;23;20099;-80
2022/11/16 10:14:30;;;;;;;5.15;4.20;;;;;;;24.27;28.49;96982.94;6214984;23;20039;-80
2022/11/16 10:17:01;;;;;;;6.97;4.55;;;;;;;23.07;30.05;96984.63;6215661;23;20067;-80
2022/11/16 10:19:46;;;;;;;8.10;4.28;;;;;;;23.61;29.55;96971.06;6214714;23;20009;-80
2022/11/16 10:22:34;;;;;;;5.07;4.10;;;;;;;23.84;29.43;96962.16;6215588;23;19962;-80
2022/11/16 10:25:15;;;;;;;6.03;4.43;;;;;;;24.36;28.30;96971.75;6213757;23;20012;-80
2022/11/16 10:28:15;;;;;;;5.97;4.32;;;;;;;24.01;28.62;96965.50;6215208;23;20023;-80
2022/11/16 10:31:10;;;;;;;4.43;3.17;;;;;;;25.09;27.25;96969.88;6214855;23;20035;-80
2022/11/16 10:33:38;;;;;;;6.07;4.10;;;;;;;26.21;25.95;96958.31;6213513;23;20016;-81
2022/11/16 10:36:11;;;;;;;5.43;4.30;;;;;;;26.83;25.31;96969.75;6215478;23;20285;-80
2022/11/16 10:38:38;;;;;;;4.40;4.00;;;;;;;27.37;24.22;96960.94;6214474;23;19946;-80
2022/11/16 10:41:18;;;;;;;6.75;3.88;;;;;;;27.58;24.20;96958.22;6216682;23;19914;-80
2022/11/16 10:43:46;;;;;;;4.57;3.38;;;;;;;28.06;23.13;96960.41;6216745;23;19908;-80
2022/11/16 10:46:26;;;;;;;5.60;4.13;;;;;;;27.64;23.83;96959.09;6190529;23;19912;-80
2022/11/16 10:49:27;;;;;;;7.53;4.13;;;;;;;26.81;24.67;96965.88;6217008;23;20138;-80
2022/11/16 10:51:53;;;;;;;;;;;;;;;27.41;23.64;96963.56;6217385;23;19938;-80
2022/11/16 10:54:19;;;;;;;4.30;3.53;;;;;;;27.69;23.37;96958.41;6217164;23;19914;-80
2022/11/16 10:56:50;;;;;;;4.75;3.67;;;;;;;27.61;23.61;96960.84;6216550;23;19915;-80
2022/11/16 10:59:20;;;;;;;4.00;3.47;;;;;;;27.51;23.48;96961.44;6217269;23;20484;-80
2022/11/16 11:01:48;;;;;;;4.32;3.50;;;;;;;27.55;23.54;96962.00;6216763;23;20004;-80
2022/11/16 11:04:18;;;;;;;5.25;3.90;;;;;;;27.94;23.34;96952.97;6216953;23;20021;-80
2022/11/16 11:06:47;;;;;;;6.70;4.30;;;;;;;27.41;23.58;96949.44;6214837;23;19916;-80
2022/11/16 11:09:21;;;;;;;5.60;4.07;;;;;;;27.56;23.55;96952.28;6216966;23;19954;-80
2022/11/16 11:15:17;;;;;;;4.80;3.75;;;;;;;27.66;23.51;96956.56;6216937;23;20019;-80
2022/11/16 11:17:46;;;;;;;5.72;4.10;;;;;;;27.96;23.20;96952.47;6217066;23;20008;-80
2022/11/16 11:20:15;;;;;;;5.97;4.43;;;;;;;28.23;22.69;96949.38;6216586;23;20009;-80
2022/11/16 11:22:49;;;;;;;6.28;4.15;;;;;;;28.42;22.69;96947.09;6216360;23;20009;-80
2022/11/16 11:25:26;;;;;;;5.93;3.95;;;;;;;28.41;22.57;96951.19;6190258;23;19908;-80
2022/11/16 11:28:21;;;;;;;5.78;4.20;;;;;;;28.26;22.64;96948.41;6216773;23;20015;-81
2022/11/16 11:31:02;;;;;;;5.03;3.67;;;;;;;28.13;22.82;96961.25;6217097;23;20009;-81
2022/11/16 11:33:31;;;;;;;5.55;4.20;;;;;;;27.55;23.26;96956.38;6216532;23;20012;-81
2022/11/16 11:36:08;;;;;;;6.03;4.07;;;;;;;26.85;24.56;96955.97;6216310;23;20039;-81
2022/11/16 11:38:53;;;;;;;5.85;4.32;;;;;;;26.64;24.64;96945.75;6215419;23;20019;-80
2022/11/16 11:41:19;;;;;;;6.10;4.53;;;;;;;26.94;24.32;96943.84;6216375;23;20098;-81
2022/11/16 11:44:02;;;;;;;6.07;3.97;;;;;;;27.12;24.09;96944.50;6217074;23;20001;-80
2022/11/16 11:46:32;;;;;;;5.85;4.53;;;;;;;27.18;24.12;96941.81;6216497;23;19982;-81
2022/11/16 11:49:13;;;;;;;6.28;4.82;;;;;;;26.96;24.34;96933.66;6216546;23;20438;-80
2022/11/16 11:51:44;;;;;;;6.53;4.32;;;;;;;26.97;24.09;96935.25;6215126;23;20380;-80
2022/11/16 11:54:15;;;;;;;;;;;;;;;27.08;23.79;96932.63;6217113;23;19916;-81
2022/11/16 11:56:41;;;;;;;6.45;4.55;;;;;;;27.15;23.77;96920.22;6215175;23;19908;-81
2022/11/16 11:59:16;;;;;;;6.15;4.53;;;;;;;26.82;24.28;96925.16;6216022;23;19946;-81
2022/11/16 12:02:20;;;;;;;7.40;4.60;;;;;;;26.68;24.64;96918.97;6215794;23;20013;-81
2022/11/16 12:05:05;;;;;;;7.03;4.55;;;;;;;26.84;24.27;96919.84;6166206;23;20023;-81
2022/11/16 12:07:55;;;;;;;7.38;4.80;;;;;;;26.71;24.69;96917.25;6216511;23;20017;-80
2022/11/16 12:10:50;;;;;;;6.80;4.53;;;;;;;26.49;25.08;96916.78;6216482;23;20084;-81
2022/11/16 12:13:46;;;;;;;6.20;4.55;;;;;;;25.59;26.09;96917.88;6216150;23;20485;-81
2022/11/16 12:16:22;;;;;;;7.72;5.22;;;;;;;22.61;30.45;96921.84;6216683;23;20015;-81
2022/11/16 12:19:00;;;;;;;8.98;7.00;;;;;;;20.85;33.55;96913.28;6187909;23;20390;-80
2022/11/16 12:21:42;;;;;;;11.05;7.28;;;;;;;20.23;34.51;96922.88;6216207;23;20493;-81
2022/11/16 12:24:14;;;;;;;9.10;6.82;;;;;;;20.01;35.59;96917.00;6215411;23;20374;-80
2022/11/16 12:27:10;;;;;;;9.75;6.63;;;;;;;20.27;34.53;96913.22;6216090;23;20032;-81
2022/11/16 12:29:55;;;;;;;9.80;7.20;;;;;;;19.95;35.55;96915.97;6215558;23;20422;-81
2022/11/16 12:32:52;;;;;;;9.70;7.45;;;;;;;19.97;35.08;96919.09;6216140;23;20291;-81